createdAt,value
2023-01-26T01:26:10.853Z,100.00
2023-01-26T01:28:39.021Z,100.00
2023-01-26T01:31:07.648Z,100.00
2023-01-26T01:33:36.607Z,100.00
2023-01-26T01:36:06.194Z,100.00
2023-01-26T01:38:34.040Z,100.00
2023-01-26T01:41:01.624Z,100.00
2023-01-26T01:43:29.364Z,100.00
2023-01-26T01:45:57.415Z,100.00
2023-01-26T01:48:26.853Z,100.00
2023-01-26T01:50:56.781Z,100.00
2023-01-26T01:53:28.213Z,100.00
2023-01-26T01:56:01.315Z,100.00
2023-01-26T01:58:29.729Z,100.00
2023-01-26T02:00:59.253Z,100.00
2023-01-26T02:03:27.131Z,100.00
2023-01-26T02:05:56.191Z,100.00
2023-01-26T02:08:27.607Z,100.00
2023-01-26T02:10:57.163Z,100.00
2023-01-26T02:13:25.296Z,100.00
2023-01-26T02:15:53.045Z,100.00
2023-01-26T02:18:21.665Z,100.00
2023-01-26T02:20:54.694Z,100.00
2023-01-26T02:23:44.094Z,100.00
2023-01-26T02:26:16.616Z,100.00
2023-01-26T02:28:46.462Z,100.00
2023-01-26T02:31:14.686Z,100.00
2023-01-26T02:33:43.136Z,100.00
2023-01-26T02:36:18.506Z,100.00
2023-01-26T02:39:09.333Z,100.00
2023-01-26T02:41:55.131Z,100.00
2023-01-26T02:44:24.919Z,100.00
2023-01-26T02:46:53.278Z,100.00
2023-01-26T02:49:40.003Z,100.00
2023-01-26T02:52:08.198Z,100.00
2023-01-26T02:54:54.900Z,100.00
2023-01-26T02:57:23.366Z,100.00
2023-01-26T02:59:52.161Z,100.00
2023-01-26T03:02:19.864Z,100.00
2023-01-26T03:04:47.741Z,100.00
2023-01-26T03:07:15.620Z,100.00
2023-01-26T03:09:43.226Z,100.00
2023-01-26T03:12:10.827Z,100.00
2023-01-26T03:14:38.415Z,100.00
2023-01-26T03:17:06.222Z,100.00
2023-01-26T03:19:52.308Z,100.00
2023-01-26T03:22:38.348Z,100.00
2023-01-26T03:25:24.920Z,100.00
2023-01-26T03:27:54.524Z,100.00
2023-01-26T03:30:22.207Z,100.00
2023-01-26T03:32:50.807Z,100.00
2023-01-26T03:35:22.863Z,100.00
2023-01-26T03:37:55.193Z,100.00
2023-01-26T03:41:04.608Z,100.00
2023-01-26T03:43:51.581Z,100.00
2023-01-26T03:46:37.648Z,100.00
2023-01-26T03:49:24.842Z,100.00
2023-01-26T03:52:13.628Z,100.00
2023-01-26T03:55:00.816Z,100.00
2023-01-26T03:57:29.640Z,100.00
2023-01-26T03:59:57.282Z,100.00
2023-01-26T04:02:46.123Z,100.00
2023-01-26T04:05:32.322Z,100.00
2023-01-26T04:08:22.263Z,100.00
2023-01-26T04:10:51.847Z,100.00
2023-01-26T04:13:38.706Z,100.00
2023-01-26T04:16:28.501Z,100.00
2023-01-26T04:19:14.609Z,100.00
2023-01-26T04:21:42.197Z,100.00
2023-01-26T04:24:22.598Z,100.00
2023-01-26T04:26:56.618Z,100.00
2023-01-26T04:29:28.389Z,100.00
2023-01-26T04:31:58.377Z,100.00
2023-01-26T04:34:26.754Z,100.00
2023-01-26T04:36:54.724Z,100.00
2023-01-26T04:39:25.710Z,100.00
2023-01-26T04:41:56.835Z,100.00
2023-01-26T04:44:24.545Z,100.00
2023-01-26T04:46:52.798Z,100.00
2023-01-26T04:49:21.017Z,100.00
2023-01-26T04:51:48.976Z,100.00
2023-01-26T04:54:17.329Z,100.00
2023-01-26T04:56:46.081Z,100.00
2023-01-26T04:59:14.664Z,100.00
2023-01-26T05:01:43.726Z,100.00
2023-01-26T05:04:12.830Z,100.00
2023-01-26T05:06:43.360Z,100.00
2023-01-26T05:09:11.651Z,100.00
2023-01-26T05:11:41.007Z,100.00
2023-01-26T05:14:16.134Z,100.00
2023-01-26T05:17:04.860Z,100.00
2023-01-26T05:19:51.120Z,100.00
2023-01-26T05:22:36.547Z,100.00
2023-01-26T05:25:27.370Z,100.00
2023-01-26T05:28:08.210Z,100.00
2023-01-26T05:30:35.956Z,100.00
2023-01-26T05:33:05.246Z,100.00
2023-01-26T05:35:33.587Z,100.00
2023-01-26T05:38:01.389Z,100.00
2023-01-26T05:40:31.822Z,100.00
2023-01-26T05:43:04.077Z,100.00
2023-01-26T05:46:09.989Z,100.00
2023-01-26T05:48:40.573Z,100.00
2023-01-26T05:51:08.178Z,100.00
2023-01-26T05:53:37.317Z,100.00
2023-01-26T05:56:05.322Z,100.00
2023-01-26T05:58:35.462Z,100.00
2023-01-26T06:01:04.940Z,100.00
2023-01-26T06:03:40.324Z,100.00
2023-01-26T06:06:08.009Z,100.00
2023-01-26T06:08:58.425Z,100.00
2023-01-26T06:11:32.394Z,100.00
2023-01-26T06:14:22.809Z,100.00
2023-01-26T06:16:50.700Z,100.00
2023-01-26T06:19:19.344Z,100.00
2023-01-26T06:21:53.710Z,100.00
2023-01-26T06:24:21.619Z,100.00
2023-01-26T06:26:50.292Z,100.00
2023-01-26T06:29:19.118Z,100.00
2023-01-26T06:31:47.289Z,100.00
2023-01-26T06:34:14.978Z,100.00
2023-01-26T06:36:43.674Z,100.00
2023-01-26T06:39:17.844Z,100.00
2023-01-26T06:41:57.209Z,100.00
2023-01-26T06:44:24.926Z,100.00
2023-01-26T06:46:52.730Z,100.00
2023-01-26T06:49:20.404Z,100.00
2023-01-26T06:52:05.323Z,100.00
2023-01-26T06:54:50.102Z,100.00
2023-01-26T06:57:17.725Z,100.00
2023-01-26T07:00:06.212Z,100.00
2023-01-26T07:02:36.635Z,100.00
2023-01-26T07:05:06.710Z,100.00
2023-01-26T11:58:24.737Z,69.86
2023-01-26T12:00:59.616Z,69.31
2023-01-26T12:03:48.437Z,69.72
2023-01-26T12:06:20.394Z,70.77
2023-01-26T12:09:19.171Z,69.87
2023-01-26T12:12:18.248Z,67.95
2023-01-26T12:14:47.677Z,67.71
2023-01-26T12:17:19.009Z,67.70
2023-01-26T12:20:06.342Z,67.07
2023-01-26T12:22:39.051Z,68.36
2023-01-26T12:25:35.598Z,66.79
2023-01-26T12:28:30.321Z,68.20
2023-01-26T12:43:15.180Z,62.93
2023-01-26T12:45:44.444Z,62.52
2023-01-26T12:48:20.655Z,62.51
2023-01-26T12:50:51.363Z,62.93
2023-01-26T12:53:44.120Z,64.75
2023-01-26T12:56:20.409Z,63.14
2023-01-26T12:58:48.903Z,62.17
2023-01-26T13:01:21.431Z,60.35
2023-01-26T13:04:13.787Z,61.01
2023-01-26T13:06:42.799Z,61.47
2023-01-26T13:09:37.676Z,60.19
2023-01-26T13:12:05.505Z,62.08
2023-01-26T13:14:38.132Z,61.53
2023-01-26T13:17:15.144Z,60.92
2023-01-26T17:00:26.857Z,100.00
2023-01-26T17:02:54.488Z,100.00
2023-01-26T17:05:23.139Z,100.00
2023-01-26T17:07:53.732Z,100.00
2023-01-26T17:10:22.683Z,100.00
2023-01-26T17:12:50.534Z,100.00
2023-01-26T17:15:18.205Z,100.00
2023-01-26T17:17:45.864Z,100.00
2023-01-26T17:20:19.387Z,100.00
2023-01-26T17:22:48.585Z,100.00
2023-01-26T17:25:17.480Z,100.00
2023-01-26T17:27:46.554Z,100.00
2023-01-26T17:30:14.193Z,100.00
2023-01-26T17:32:42.464Z,100.00
2023-01-26T17:35:10.380Z,100.00
2023-01-26T17:37:39.569Z,100.00
2023-01-26T17:40:08.592Z,100.00
2023-01-26T17:42:36.516Z,100.00
2023-01-26T17:45:04.366Z,100.00
2023-01-26T17:47:35.305Z,100.00
2023-01-26T17:50:02.890Z,100.00
2023-01-26T17:52:31.543Z,100.00
2023-01-26T17:55:05.378Z,100.00
2023-01-26T17:57:33.962Z,100.00
2023-01-26T18:00:01.530Z,100.00
2023-01-26T18:02:39.550Z,100.00
2023-01-26T18:05:09.034Z,99.92
2023-01-26T18:07:36.657Z,99.49
2023-01-26T18:10:04.778Z,99.33
2023-01-26T18:12:33.333Z,99.54
2023-01-26T18:15:01.285Z,99.34
2023-01-26T18:17:28.805Z,99.13
2023-01-26T18:19:56.354Z,98.79
2023-01-26T18:22:24.075Z,98.83
2023-01-26T18:24:52.895Z,98.50
2023-01-26T18:27:20.392Z,98.62
2023-01-26T18:29:48.414Z,98.15
2023-01-26T18:32:16.029Z,98.22
2023-01-26T18:34:44.264Z,98.02
2023-01-26T18:37:12.780Z,98.10
2023-01-26T18:39:40.352Z,97.93
2023-01-26T18:42:08.174Z,97.96
2023-01-26T18:44:36.462Z,98.08
2023-01-26T18:47:04.961Z,97.92
2023-01-26T18:49:34.957Z,97.90
2023-01-26T18:52:02.572Z,97.73
2023-01-26T18:54:31.004Z,97.76
2023-01-26T18:56:58.628Z,97.42
2023-01-26T18:59:26.255Z,97.86
2023-01-26T19:01:55.513Z,97.85
2023-01-26T19:04:23.077Z,97.74
2023-01-26T19:06:51.073Z,97.57
2023-01-26T19:09:18.665Z,97.72
2023-01-26T19:11:46.300Z,97.72
2023-01-26T19:14:14.748Z,97.72
2023-01-26T19:16:47.772Z,97.77
2023-01-26T19:19:15.482Z,97.76
2023-01-26T19:21:43.149Z,97.49
2023-01-26T19:24:11.001Z,97.39
2023-01-26T19:26:38.831Z,97.18
2023-01-26T19:29:06.360Z,97.63
2023-01-26T19:31:35.250Z,97.25
2023-01-26T19:34:04.986Z,97.20
2023-01-26T19:36:34.358Z,97.17
2023-01-26T19:39:04.826Z,96.85
2023-01-26T19:41:34.674Z,96.91
2023-01-26T19:44:02.548Z,97.14
2023-01-26T19:46:30.179Z,96.74
2023-01-26T19:48:57.857Z,96.91
2023-01-26T19:51:26.427Z,96.69
2023-01-26T19:53:58.168Z,96.57
2023-01-26T19:56:33.487Z,96.36
2023-01-26T19:59:02.717Z,96.73
2023-01-26T20:01:33.379Z,96.51
2023-01-26T20:04:09.305Z,96.34
2023-01-26T20:06:37.145Z,96.46
2023-01-26T20:09:06.007Z,96.38
2023-01-26T20:11:34.272Z,96.72
2023-01-26T20:14:08.698Z,96.87
2023-01-26T20:16:37.245Z,97.22
2023-01-26T20:19:05.160Z,97.31
2023-01-26T20:21:33.324Z,97.26
2023-01-26T20:24:05.568Z,97.37
2023-01-26T20:26:33.882Z,97.29
2023-01-26T20:29:01.485Z,97.37
2023-01-26T20:31:29.291Z,97.53
2023-01-26T20:33:58.592Z,97.48
2023-01-26T20:36:27.958Z,97.59
2023-01-26T20:38:56.156Z,97.26
2023-01-26T20:41:29.947Z,97.97
2023-01-26T20:44:01.976Z,97.92
2023-01-26T20:46:42.161Z,97.86
2023-01-26T20:49:16.154Z,97.89
2023-01-26T20:51:45.707Z,98.07
2023-01-26T20:54:16.093Z,98.13
2023-01-26T20:56:46.013Z,98.50
2023-01-26T20:59:14.255Z,98.58
2023-01-26T21:01:42.640Z,98.40
2023-01-26T21:04:11.083Z,98.68
2023-01-26T21:06:41.945Z,98.63
2023-01-26T21:09:12.519Z,98.67
2023-01-26T21:11:41.986Z,98.73
2023-01-26T21:14:11.747Z,98.48
2023-01-26T21:16:40.861Z,98.01
2023-01-26T21:19:09.069Z,97.93
2023-01-26T21:21:37.707Z,98.05
2023-01-26T21:24:07.535Z,98.09
2023-01-26T21:26:35.892Z,97.96
2023-01-26T21:29:08.012Z,98.21
2023-01-26T21:31:36.366Z,98.08
2023-01-26T21:34:04.967Z,98.31
2023-01-26T21:36:34.428Z,98.41
2023-01-26T21:39:04.155Z,98.17
2023-01-26T21:41:52.146Z,98.47
2023-01-26T21:44:31.785Z,98.33
2023-01-26T21:47:01.419Z,98.83
2023-01-26T21:49:32.057Z,98.64
2023-01-26T21:52:18.949Z,98.69
2023-01-26T21:54:48.314Z,98.26
2023-01-26T21:57:35.231Z,98.12
2023-01-26T22:00:04.908Z,98.29
2023-01-26T22:02:36.263Z,98.43
2023-01-26T22:05:04.254Z,98.00
2023-01-26T22:07:33.296Z,98.02
2023-01-26T22:10:02.178Z,97.94
2023-01-26T22:12:30.778Z,97.96
2023-01-26T22:14:59.193Z,98.13
2023-01-26T22:17:27.703Z,97.60
2023-01-26T22:19:57.191Z,98.17
2023-01-26T22:22:25.206Z,98.24
2023-01-26T22:24:53.771Z,98.36
2023-01-26T22:27:23.665Z,98.22
2023-01-26T22:29:51.517Z,99.07
2023-01-26T22:32:19.667Z,99.19
2023-01-26T22:34:47.812Z,100.00
2023-01-26T22:37:15.926Z,99.83
2023-01-26T22:39:44.306Z,99.70
2023-01-26T22:42:12.977Z,100.00
2023-01-26T22:44:42.803Z,100.00
2023-01-26T22:47:10.664Z,100.00
2023-01-26T22:49:39.872Z,100.00
2023-01-26T22:52:07.884Z,100.00
2023-01-26T22:54:42.392Z,100.00
2023-01-26T22:57:11.765Z,100.00
2023-01-26T22:59:40.107Z,100.00
2023-01-26T23:02:08.017Z,100.00
2023-01-26T23:04:36.699Z,100.00
2023-01-26T23:07:04.555Z,100.00
2023-01-26T23:09:32.952Z,100.00
2023-01-26T23:12:01.998Z,100.00
2023-01-26T23:14:30.960Z,100.00
2023-01-26T23:16:59.847Z,100.00
2023-01-26T23:19:27.814Z,100.00
2023-01-26T23:21:55.952Z,100.00
2023-01-26T23:24:24.741Z,100.00
2023-01-26T23:26:53.046Z,100.00
2023-01-26T23:29:20.878Z,100.00
2023-01-26T23:31:48.888Z,100.00
2023-01-26T23:34:17.348Z,100.00
2023-01-26T23:36:46.660Z,99.97
2023-01-26T23:39:14.440Z,99.79
2023-01-26T23:41:42.670Z,99.94
2023-01-26T23:44:13.483Z,100.00
2023-01-26T23:46:42.113Z,100.00
2023-01-26T23:49:11.264Z,99.71
2023-01-26T23:51:39.645Z,99.98
2023-01-26T23:54:09.127Z,99.95
2023-01-26T23:56:37.027Z,99.96
2023-01-26T23:59:05.534Z,100.00
